Latest Weather Observations for East Sale Airport

IDV60801

Issued at 6:32 am EDT Saturday 19 October 2019 (issued every 10 minutes, with the page automatically refreshed every 10 minutes)

About weather observations | Map of weather stations | Latest weather observations for VIC | Other Formats
Station Details ID: 085314 Name: EAST SALE AIRPORT Lat: -38.10 Lon: 147.14 Height: 5.3 m
Data from the previous 72 hours. | See also: Recent months at East Sale Airport
Date/Time
EDT
Temp
°C
App
Temp
°C
Dew
Point
°C
Rel
Hum
%
Delta-T
°C
Wind Press
QNH
hPa
Press
MSL
hPa
Rain since
9am
mm
Dir  Spd
km/h
Gust
km/h
Spd
kts
Gust
kts
19/06:30am 10.1 3.9 6.3 77 1.8 WSW 28 41 15 22 1011.0 - 0.2
19/06:00am 10.3 3.4 6.5 77 1.8 WSW 32 43 17 23 1010.5 - 0.2
19/05:41am 10.4 3.5 6.5 77 1.8 WSW 32 50 17 27 1010.2 - 0.2
19/05:30am 10.4 3.9 6.7 78 1.7 WSW 30 43 16 23 1010.2 - 0.2
19/05:00am 10.8 4.7 6.6 75 2.0 WSW 28 43 15 23 1010.2 - 0.2
19/04:30am 10.8 4.0 6.9 77 1.8 WSW 32 44 17 24 1010.0 - 0.2
19/04:15am 11.0 4.3 7.3 78 1.8 WSW 32 50 17 27 1009.9 - 0.2
19/04:00am 11.1 5.1 7.2 77 1.9 WSW 28 41 15 22 1010.1 - 0.2
19/03:30am 11.1 6.3 7.4 78 1.8 WSW 22 32 12 17 1010.3 - 0.2
19/03:00am 11.4 5.1 7.3 76 2.0 WSW 30 39 16 21 1010.4 - 0.2
19/02:30am 11.6 6.0 7.3 75 2.1 WSW 26 35 14 19 1010.7 - 0.2
19/02:00am 11.5 6.6 7.0 74 2.1 WSW 22 30 12 16 1011.1 - 0.2
19/01:30am 11.2 7.4 7.7 79 1.7 WSW 17 24 9 13 1011.5 - 0.2
19/01:00am 11.7 5.9 8.0 78 1.8 WSW 28 41 15 22 1011.6 - 0.2
19/12:30am 11.8 5.2 8.5 80 1.6 WSW 33 52 18 28 1011.2 - 0.2
19/12:24am 11.6 5.6 8.6 82 1.5 WSW 30 52 16 28 1011.1 - 0.2
19/12:00am 11.5 6.5 8.2 80 1.6 WSW 24 33 13 18 1011.3 - 0.2
 
Date/Time
EDT
Temp
°C
App
Temp
°C
Dew
Point
°C
Rel
Hum
%
Delta-T
°C
Wind Press
QNH
hPa
Press
MSL
hPa
Rain since
9am
mm
Dir  Spd
km/h
Gust
km/h
Spd
kts
Gust
kts
18/11:33pm 12.1 5.6 8.2 77 1.9 WSW 32 50 17 27 1011.3 - 0.2
18/11:30pm 12.1 6.0 8.2 77 1.9 WSW 30 43 16 23 1011.3 - 0.2
18/11:00pm 13.1 7.4 8.4 73 2.3 WSW 28 35 15 19 1011.0 - 0.2
18/10:30pm 13.5 9.4 8.6 72 2.5 WSW 20 33 11 18 1010.8 - 0.2
18/10:00pm 13.2 8.9 9.3 77 2.0 SSW 22 32 12 17 1010.7 - 0.2
18/09:30pm 13.9 11.7 5.3 56 4.0 NNW 6 7 3 4 1009.2 - 0.2
18/09:00pm 15.2 12.9 5.7 53 4.5 WNW 7 11 4 6 1009.2 - 0.2
18/08:30pm 14.3 12.1 6.4 59 3.8 NNW 7 9 4 5 1009.1 - 0.2
18/08:00pm 14.9 12.3 6.2 56 4.2 NNW 9 11 5 6 1009.0 - 0.2
18/07:30pm 16.6 13.2 5.9 49 5.2 NNW 13 15 7 8 1009.0 - 0.2
18/07:00pm 18.6 12.9 4.8 40 6.6 NNW 24 30 13 16 1008.8 - 0.2
18/06:30pm 18.9 13.2 5.0 40 6.7 NNW 24 32 13 17 1008.8 - 0.2
18/06:01pm 19.6 12.1 4.5 37 7.3 NW 33 52 18 28 1008.8 - 0.2
18/06:00pm 19.6 11.7 4.5 37 7.3 NW 35 52 19 28 1008.8 - 0.2
18/05:52pm 20.1 12.7 3.8 34 7.8 NW 32 50 17 27 1008.6 - 0.2
18/05:30pm 21.0 13.1 4.1 33 8.2 NW 35 46 19 25 1008.6 - 0.2
18/05:00pm 21.3 13.3 4.0 32 8.4 NW 35 46 19 25 1008.6 - 0.2
18/04:30pm 21.6 13.6 3.8 31 8.6 NW 35 46 19 25 1008.5 - 0.2
18/04:00pm 22.4 14.9 4.5 31 8.8 NW 33 46 18 25 1008.6 - 0.2
18/03:30pm 22.0 13.6 3.6 30 8.9 NW 37 54 20 29 1008.7 - 0.2
18/03:02pm 21.7 13.7 1.9 27 9.2 NW 33 54 18 29 1009.0 - 0.2
18/03:00pm 22.1 14.3 2.8 28 9.2 NW 33 50 18 27 1008.9 - 0.2
18/02:58pm 22.5 14.9 2.6 27 9.4 NW 32 50 17 27 1009.1 - 0.2
18/02:30pm 21.6 13.3 2.3 28 9.0 NW 35 48 19 26 1009.5 - 0.2
18/02:05pm 21.8 14.7 3.5 30 8.8 WNW 30 48 16 26 1009.8 - 0.2
18/02:00pm 21.1 13.3 1.9 28 8.9 WNW 32 46 17 25 1009.9 - 0.2
18/01:45pm 20.9 14.1 3.2 31 8.4 WNW 28 52 15 28 1010.2 - 0.2
18/01:30pm 20.3 15.6 5.1 37 7.4 WNW 19 28 10 15 1010.6 - 0.2
18/01:00pm 19.4 14.0 4.7 38 7.1 NW 22 32 12 17 1011.4 - 0.2
18/12:30pm 17.9 13.8 6.1 46 5.8 NW 17 22 9 12 1012.0 - 0.2
18/12:00pm 17.1 14.0 7.2 52 4.9 NW 13 22 7 12 1012.6 - 0.2
18/11:30am 15.8 12.0 5.7 51 4.8 W 15 20 8 11 1013.1 - 0.2
18/11:00am 15.2 12.2 6.2 55 4.3 WNW 11 17 6 9 1013.5 - 0.2
18/10:30am 14.1 10.5 4.9 54 4.3 WNW 13 20 7 11 1013.9 - 0.0
18/10:00am 13.3 9.4 5.5 59 3.7 W 15 22 8 12 1014.1 - 0.0
18/09:30am 12.9 8.2 5.3 60 3.5 W 19 24 10 13 1014.3 - 0.0
18/09:00am 12.0 6.8 5.6 65 3.0 WSW 22 30 12 16 1014.5 - 0.2
18/08:30am 11.2 6.3 5.1 66 2.8 WSW 20 30 11 16 1014.5 - 0.2
18/08:00am 10.3 5.0 5.1 70 2.4 W 22 32 12 17 1014.6 - 0.2
18/07:30am 9.3 4.3 4.5 72 2.1 WSW 20 32 11 17 1014.7 - 0.2
18/07:00am 8.8 3.7 4.2 73 2.0 WSW 20 28 11 15 1014.4 - 0.2
18/06:30am 8.5 3.7 4.5 76 1.8 WSW 19 22 10 12 1014.2 - 0.2
18/06:00am 8.8 4.1 5.2 78 1.6 WSW 19 30 10 16 1014.3 - 0.2
18/05:30am 9.3 3.0 5.7 78 1.6 W 28 39 15 21 1014.0 - 0.2
18/05:00am 9.1 4.6 6.0 81 1.4 WSW 19 32 10 17 1014.1 - 0.2
18/04:30am 8.7 4.6 6.3 85 1.1 WSW 17 24 9 13 1013.9 - 0.2
18/04:00am 8.9 4.9 6.7 86 1.0 W 17 24 9 13 1013.9 - 0.2
18/03:30am 8.8 5.2 6.8 87 0.9 WNW 15 22 8 12 1014.1 - 0.2
18/03:00am 8.1 5.6 6.6 90 0.7 WNW 9 11 5 6 1014.1 - 0.2
18/02:30am 9.2 5.8 7.5 89 0.8 WNW 15 20 8 11 1014.2 - 0.2
18/02:00am 9.7 5.3 7.6 87 1.0 WNW 20 26 11 14 1014.3 - 0.2
18/01:30am 10.0 5.3 7.6 85 1.1 W 22 30 12 16 1014.5 - 0.2
18/01:00am 10.2 4.7 7.6 84 1.2 W 26 35 14 19 1014.7 - 0.2
18/12:30am 10.2 5.1 7.6 84 1.2 W 24 35 13 19 1014.7 - 0.2
18/12:00am 10.4 5.7 7.8 84 1.3 W 22 30 12 16 1014.8 - 0.2
 
Date/Time
EDT
Temp
°C
App
Temp
°C
Dew
Point
°C
Rel
Hum
%
Delta-T
°C
Wind Press
QNH
hPa
Press
MSL
hPa
Rain since
9am
mm
Dir  Spd
km/h
Gust
km/h
Spd
kts
Gust
kts
17/11:30pm 10.5 5.8 7.9 84 1.3 W 22 28 12 15 1014.7 - 0.2
17/11:00pm 10.7 6.5 8.1 84 1.3 W 20 30 11 16 1014.5 - 0.2
17/10:30pm 10.6 6.5 8.5 87 1.0 W 20 30 11 16 1014.0 - 0.2
17/10:00pm 10.5 6.5 8.4 87 1.0 W 19 30 10 16 1013.6 - 0.2
17/09:30pm 11.0 5.6 8.2 83 1.4 W 26 37 14 20 1013.1 - 0.2
17/09:00pm 11.2 5.8 8.2 82 1.5 WNW 26 37 14 20 1012.8 - 0.2
17/08:30pm 11.0 6.8 8.2 83 1.4 WNW 20 32 11 17 1012.2 - 0.2
17/08:00pm 11.1 6.5 8.3 83 1.4 WNW 22 30 12 16 1011.6 - 0.2
17/07:30pm 11.3 5.9 8.0 80 1.6 WNW 26 33 14 18 1011.0 - 0.2
17/07:00pm 11.1 6.5 8.0 81 1.5 WNW 22 32 12 17 1010.6 - 0.2
17/06:30pm 11.6 5.2 6.9 73 2.2 WNW 30 43 16 23 1010.0 - 0.2
17/06:14pm 12.0 5.1 6.5 69 2.6 WNW 32 50 17 27 1009.5 - 0.2
17/06:00pm 12.5 4.7 6.8 68 2.7 WNW 37 52 20 28 1009.3 - 0.2
17/05:30pm 12.1 4.9 7.6 74 2.2 W 35 56 19 30 1008.7 - 0.2
17/05:00pm 13.9 5.2 6.0 59 3.8 WNW 41 63 22 34 1008.1 - 0.2
17/04:30pm 13.7 4.4 6.1 60 3.6 W 44 61 24 33 1008.0 - 0.2
17/04:00pm 13.0 4.0 6.4 64 3.2 W 43 65 23 35 1007.6 - 0.2
17/03:30pm 12.9 5.5 6.9 67 2.9 W 35 50 19 27 1007.5 - 0.2
17/03:00pm 12.1 2.6 6.6 69 2.6 W 46 69 25 37 1007.5 - 0.2
17/02:30pm 10.4 2.4 7.5 82 1.4 W 39 65 21 35 1007.7 - 0.2
17/02:00pm 12.6 5.1 6.2 65 3.0 W 35 56 19 30 1007.4 - 0.0
17/01:30pm 14.7 6.3 5.5 54 4.4 W 39 50 21 27 1007.0 - 0.0
17/01:00pm 14.8 6.7 5.1 52 4.6 W 37 54 20 29 1007.0 - 0.0
17/12:30pm 13.5 5.4 5.4 58 3.8 W 37 59 20 32 1007.2 - 0.0
17/12:00pm 14.3 6.2 5.4 55 4.2 WNW 37 52 20 28 1007.1 - 0.0
17/11:38am 13.6 5.6 5.5 58 3.8 W 37 63 20 34 1007.1 - 0.0
17/11:30am 13.1 6.0 5.5 60 3.6 W 32 48 17 26 1007.3 - 0.0
17/11:00am 14.0 7.1 6.4 60 3.7 WNW 32 41 17 22 1007.2 - 0.0
17/10:30am 12.5 5.5 6.1 65 3.0 WNW 32 44 17 24 1007.4 - 0.0
17/10:00am 12.2 6.6 8.7 79 1.7 W 28 41 15 22 1007.1 - 0.0
17/09:30am 9.8 6.6 8.4 91 0.7 W 15 20 8 11 1007.7 - 0.0
17/09:00am 9.0 5.6 7.8 92 0.6 W 15 22 8 12 1007.7 - 4.0
17/08:44am 8.7 4.5 7.5 92 0.6 WSW 19 28 10 15 1007.5 - 3.8
17/08:30am 8.7 2.8 7.5 92 0.6 W 28 37 15 20 1007.5 - 2.8
17/08:26am 8.8 2.9 7.6 92 0.6 W 28 41 15 22 1007.5 - 2.6
17/08:00am 10.1 4.3 8.0 87 1.0 WSW 28 43 15 23 1007.0 - 1.8
17/07:42am 9.6 3.0 7.9 89 0.8 WSW 32 44 17 24 1006.5 - 1.8
17/07:30am 9.1 4.3 8.8 98 0.1 W 24 35 13 19 1006.4 - 1.8
17/07:00am 8.3 6.1 8.0 98 0.1 WSW 9 17 5 9 1005.4 - 1.8
17/06:30am 7.8 5.1 7.5 98 0.1 WSW 11 15 6 8 1005.3 - 1.8
17/06:00am 7.6 6.2 7.2 97 0.2 WNW 4 7 2 4 1005.3 - 1.8
17/05:49am 7.8 6.1 7.4 97 0.2 WSW 6 9 3 5 1005.2 - 1.8
17/05:30am 8.8 7.7 8.4 97 0.2 W 4 9 2 5 1005.2 - 1.8
17/05:26am 8.4 7.2 8.0 97 0.2 WNW 4 7 2 4 1005.3 - 1.8
17/05:12am 9.7 7.9 9.4 98 0.1 WNW 9 13 5 7 1005.1 - 1.8
17/05:00am 9.9 7.4 9.6 98 0.2 WSW 13 15 7 8 1005.3 - 1.8
17/04:51am 8.8 7.2 8.2 96 0.3 NNE 6 15 3 8 1005.2 - 1.8
17/04:30am 10.2 9.0 9.7 97 0.3 NE 6 9 3 5 1005.2 - 1.8
17/04:00am 10.6 9.0 10.1 97 0.3 N 9 11 5 6 1005.6 - 1.8
17/03:30am 10.6 9.3 10.0 96 0.3 NE 7 9 4 5 1006.0 - 1.8
17/03:00am 11.1 10.2 10.5 96 0.3 E 6 7 3 4 1006.5 - 1.8
17/02:30am 11.3 11.5 10.5 95 0.4 CALM 0 0 0 0 1006.8 - 1.8
17/02:00am 11.9 11.1 11.1 95 0.4 NW 6 9 3 5 1007.5 - 1.8
17/01:30am 11.7 11.6 10.9 95 0.4 NNW 2 9 1 5 1007.9 - 1.8
17/01:00am 11.9 11.1 11.0 94 0.5 NW 6 7 3 4 1008.2 - 1.6
17/12:30am 12.0 11.0 11.1 94 0.5 NW 7 9 4 5 1008.2 - 1.6
17/12:00am 12.1 10.8 11.2 94 0.5 NW 9 11 5 6 1008.2 - 1.6
 
Date/Time
EDT
Temp
°C
App
Temp
°C
Dew
Point
°C
Rel
Hum
%
Delta-T
°C
Wind Press
QNH
hPa
Press
MSL
hPa
Rain since
9am
mm
Dir  Spd
km/h
Gust
km/h
Spd
kts
Gust
kts
16/11:30pm 12.2 11.2 11.1 93 0.6 WNW 7 9 4 5 1008.6 - 1.6
16/11:00pm 12.1 11.0 10.8 92 0.7 W 7 9 4 5 1008.9 - 1.6
16/10:30pm 12.3 10.9 11.0 92 0.7 WNW 9 13 5 7 1008.8 - 1.6
16/10:00pm 12.6 10.9 11.2 91 0.7 WSW 11 15 6 8 1009.0 - 1.6
16/09:30pm 12.5 10.8 11.2 92 0.7 WNW 11 17 6 9 1009.0 - 1.6
16/09:00pm 12.8 10.3 11.2 90 0.8 WNW 15 17 8 9 1008.9 - 1.4
16/08:30pm 13.1 10.5 10.8 86 1.2 W 15 20 8 11 1008.5 - 1.4
16/08:00pm 13.1 10.4 10.5 84 1.4 W 15 22 8 12 1008.2 - 1.4
16/07:30pm 12.9 10.7 10.8 87 1.1 W 13 17 7 9 1008.1 - 1.2
16/07:00pm 14.1 8.9 10.1 77 2.1 W 28 61 15 33 1008.0 - 0.6
16/06:56pm 15.4 12.7 10.2 71 2.7 E 15 61 8 33 1007.1 - 0.2
16/06:30pm 16.9 15.1 12.0 73 2.7 ESE 13 15 7 8 1006.6 - 0.0
16/06:00pm 17.9 16.7 11.5 66 3.5 SE 9 11 5 6 1006.5 - 0.0
16/05:30pm 18.4 17.6 11.7 65 3.7 ENE 7 9 4 5 1006.7 - 0.0
16/05:00pm 18.9 18.3 12.4 66 3.6 N 7 11 4 6 1006.7 - 0.0
16/04:30pm 18.2 17.5 12.0 67 3.4 N 7 11 4 6 1006.9 - 0.0
16/04:00pm 17.6 16.1 11.9 69 3.1 N 11 15 6 8 1007.3 - 0.0
16/03:30pm 16.6 15.3 11.1 70 3.0 N 9 13 5 7 1008.0 - 0.0
16/03:00pm 16.1 14.9 11.5 74 2.5 NNE 9 15 5 8 1008.5 - 0.0
16/02:30pm 16.3 14.3 11.5 73 2.6 NE 13 20 7 11 1009.1 - 0.0
16/02:00pm 15.9 13.1 11.3 74 2.5 ENE 17 22 9 12 1009.1 - 0.0
16/01:30pm 15.2 11.8 11.2 77 2.1 E 20 24 11 13 1009.7 - 0.0
16/01:00pm 15.2 12.2 10.6 74 2.4 E 17 20 9 11 1010.1 - 0.0
16/12:30pm 15.6 11.9 9.5 67 3.2 E 19 28 10 15 1009.9 - 0.0
16/12:00pm 15.4 12.1 10.8 74 2.4 E 19 24 10 13 1010.2 - 0.0
16/11:30am 15.5 12.3 10.1 70 2.8 E 17 22 9 12 1010.7 - 0.0
16/11:00am 15.5 12.3 9.8 69 3.0 E 17 20 9 11 1011.0 - 0.0
16/10:30am 15.5 12.3 9.8 69 3.0 E 17 20 9 11 1011.1 - 0.0
16/10:00am 15.4 11.3 10.0 70 2.8 E 22 30 12 16 1010.7 - 0.0
16/09:30am 15.0 11.3 10.0 72 2.6 E 20 24 11 13 1010.7 - 0.0
16/09:00am 14.2 11.2 10.8 80 1.8 E 17 20 9 11 1011.2 - -
16/08:30am 13.6 11.9 11.3 86 1.2 ESE 11 15 6 8 1011.6 - -
16/08:00am 12.7 10.6 11.1 90 0.8 SE 13 15 7 8 1012.0 - -
16/07:30am 11.9 10.2 11.1 95 0.4 SE 11 13 6 7 1011.8 - -
16/07:00am 10.9 9.3 10.3 96 0.3 SSE 9 11 5 6 1011.9 - -

Other formats

Comma delimited format used in spreadsheet applications
http://www.bom.gov.au/fwo/IDV60801/IDV60801.95907.axf

JavaScript Object Notation format (JSON) in row-major order
http://www.bom.gov.au/fwo/IDV60801/IDV60801.95907.json

Data quality

Most of these data are generated automatically and are frequently updated. Quality checks on data are not normally performed. It is possible for incorrect values to appear. Refer to information at About Latest Weather Observations and please check the disclaimer before using these data.